Terminal Aerodrome Forecast
Issued by NWS

Home | Current Version | Previous Version | Graphics & Text | Print | Product List | Glossary Off
Versions: 1 2 3 4 5 6 7 8 9 10 11 12 13 14 15 16 17 18 19 20 21 22 23 24 25 26 27 28 29 30 31 32 33 34 35 36 37 38 39 40 41 42 43 44 45 46 47 48 49 50

000
FTUS43 KDDC 191120
TAFGCK
TAF
KGCK 191120Z 1912/2012 01024G31KT P6SM OVC007
     FM191500 13011KT P6SM BKN035
     FM200300 13013KT P6SM SCT100 WS020/19045KT
     FM200900 07015G23KT P6SM BKN008 WS020/25030KT=

USA.gov is the U.S. government's official web portal to all federal, state and local government web resources and services.